sensor_id;sensor_type;location;lat;lon;timestamp;P1;durP1;ratioP1;P2;durP2;ratioP2
10823;SDS011;39116;59.332;18.034;2024-01-30T00:02:07;34.00;;;15.80;;
10823;SDS011;39116;59.332;18.034;2024-01-30T00:04:29;32.42;;;14.48;;
10823;SDS011;39116;59.332;18.034;2024-01-30T00:06:50;32.75;;;14.77;;
10823;SDS011;39116;59.332;18.034;2024-01-30T00:09:14;33.17;;;14.85;;
10823;SDS011;39116;59.332;18.034;2024-01-30T00:11:36;37.40;;;14.82;;
10823;SDS011;39116;59.332;18.034;2024-01-30T00:13:58;30.98;;;14.73;;
10823;SDS011;39116;59.332;18.034;2024-01-30T00:16:20;30.90;;;14.95;;
10823;SDS011;39116;59.332;18.034;2024-01-30T00:18:42;33.10;;;14.40;;
10823;SDS011;39116;59.332;18.034;2024-01-30T00:21:03;34.88;;;15.68;;
10823;SDS011;39116;59.332;18.034;2024-01-30T00:23:25;31.73;;;15.13;;
10823;SDS011;39116;59.332;18.034;2024-01-30T00:25:48;32.25;;;14.93;;
10823;SDS011;39116;59.332;18.034;2024-01-30T00:28:10;37.15;;;15.60;;
10823;SDS011;39116;59.332;18.034;2024-01-30T00:30:31;34.45;;;14.85;;
10823;SDS011;39116;59.332;18.034;2024-01-30T00:32:53;38.60;;;16.42;;
10823;SDS011;39116;59.332;18.034;2024-01-30T00:35:15;36.22;;;16.48;;
10823;SDS011;39116;59.332;18.034;2024-01-30T00:37:37;38.70;;;15.73;;
10823;SDS011;39116;59.332;18.034;2024-01-30T00:39:58;41.92;;;16.33;;
10823;SDS011;39116;59.332;18.034;2024-01-30T00:42:21;33.85;;;16.88;;
10823;SDS011;39116;59.332;18.034;2024-01-30T00:44:44;35.35;;;16.23;;
10823;SDS011;39116;59.332;18.034;2024-01-30T00:47:06;39.65;;;16.00;;
10823;SDS011;39116;59.332;18.034;2024-01-30T00:49:27;37.25;;;16.83;;
10823;SDS011;39116;59.332;18.034;2024-01-30T00:51:49;37.05;;;16.58;;
10823;SDS011;39116;59.332;18.034;2024-01-30T00:54:11;37.78;;;16.10;;
10823;SDS011;39116;59.332;18.034;2024-01-30T00:56:32;40.67;;;16.70;;
10823;SDS011;39116;59.332;18.034;2024-01-30T00:58:55;31.30;;;14.70;;
10823;SDS011;39116;59.332;18.034;2024-01-30T01:01:17;37.20;;;17.00;;
10823;SDS011;39116;59.332;18.034;2024-01-30T01:03:39;40.45;;;16.38;;
10823;SDS011;39116;59.332;18.034;2024-01-30T01:06:01;35.40;;;16.27;;
10823;SDS011;39116;59.332;18.034;2024-01-30T01:08:22;33.10;;;15.60;;
10823;SDS011;39116;59.332;18.034;2024-01-30T01:10:44;42.20;;;16.98;;
10823;SDS011;39116;59.332;18.034;2024-01-30T01:13:06;36.95;;;16.65;;
10823;SDS011;39116;59.332;18.034;2024-01-30T01:15:29;34.67;;;15.75;;
10823;SDS011;39116;59.332;18.034;2024-01-30T01:17:50;36.85;;;16.90;;
10823;SDS011;39116;59.332;18.034;2024-01-30T01:20:12;38.65;;;17.15;;
10823;SDS011;39116;59.332;18.034;2024-01-30T01:22:34;44.53;;;18.02;;
10823;SDS011;39116;59.332;18.034;2024-01-30T01:24:55;39.88;;;15.73;;
10823;SDS011;39116;59.332;18.034;2024-01-30T01:27:17;47.90;;;17.15;;
10823;SDS011;39116;59.332;18.034;2024-01-30T01:29:39;37.15;;;17.15;;
10823;SDS011;39116;59.332;18.034;2024-01-30T01:32:02;40.13;;;17.10;;
10823;SDS011;39116;59.332;18.034;2024-01-30T01:34:24;35.72;;;16.35;;
10823;SDS011;39116;59.332;18.034;2024-01-30T01:36:45;37.10;;;16.58;;
10823;SDS011;39116;59.332;18.034;2024-01-30T01:39:07;32.72;;;15.70;;
10823;SDS011;39116;59.332;18.034;2024-01-30T01:41:29;37.60;;;16.02;;
10823;SDS011;39116;59.332;18.034;2024-01-30T01:43:51;34.13;;;16.63;;
10823;SDS011;39116;59.332;18.034;2024-01-30T01:46:13;35.43;;;16.53;;
10823;SDS011;39116;59.332;18.034;2024-01-30T01:48:36;41.92;;;17.80;;
10823;SDS011;39116;59.332;18.034;2024-01-30T01:50:59;31.95;;;15.30;;
10823;SDS011;39116;59.332;18.034;2024-01-30T01:53:21;35.10;;;16.50;;
10823;SDS011;39116;59.332;18.034;2024-01-30T01:55:43;41.97;;;17.15;;
10823;SDS011;39116;59.332;18.034;2024-01-30T01:58:05;48.47;;;17.92;;
10823;SDS011;39116;59.332;18.034;2024-01-30T02:02:57;41.37;;;18.23;;
10823;SDS011;39116;59.332;18.034;2024-01-30T02:05:21;49.50;;;20.45;;
10823;SDS011;39116;59.332;18.034;2024-01-30T02:07:42;51.90;;;18.55;;
10823;SDS011;39116;59.332;18.034;2024-01-30T02:10:05;53.20;;;18.85;;
10823;SDS011;39116;59.332;18.034;2024-01-30T02:12:27;66.40;;;22.20;;
10823;SDS011;39116;59.332;18.034;2024-01-30T02:14:49;102.90;;;21.02;;
10823;SDS011;39116;59.332;18.034;2024-01-30T02:17:10;109.40;;;23.23;;
10823;SDS011;39116;59.332;18.034;2024-01-30T02:19:32;78.90;;;23.98;;
10823;SDS011;39116;59.332;18.034;2024-01-30T02:21:55;80.38;;;22.35;;
10823;SDS011;39116;59.332;18.034;2024-01-30T02:24:17;101.28;;;21.88;;
10823;SDS011;39116;59.332;18.034;2024-01-30T02:26:39;135.15;;;24.15;;
10823;SDS011;39116;59.332;18.034;2024-01-30T02:29:01;150.47;;;22.67;;
10823;SDS011;39116;59.332;18.034;2024-01-30T02:31:22;101.90;;;19.73;;
10823;SDS011;39116;59.332;18.034;2024-01-30T02:33:46;119.03;;;23.70;;
10823;SDS011;39116;59.332;18.034;2024-01-30T02:36:07;98.50;;;23.43;;
10823;SDS011;39116;59.332;18.034;2024-01-30T02:38:31;92.57;;;21.50;;
10823;SDS011;39116;59.332;18.034;2024-01-30T02:40:53;107.45;;;21.23;;
10823;SDS011;39116;59.332;18.034;2024-01-30T02:43:15;105.85;;;19.67;;
10823;SDS011;39116;59.332;18.034;2024-01-30T02:45:37;67.33;;;17.90;;
10823;SDS011;39116;59.332;18.034;2024-01-30T02:47:58;121.38;;;18.63;;
10823;SDS011;39116;59.332;18.034;2024-01-30T02:50:20;70.27;;;18.23;;
10823;SDS011;39116;59.332;18.034;2024-01-30T02:52:42;109.93;;;20.17;;
10823;SDS011;39116;59.332;18.034;2024-01-30T02:55:06;101.17;;;18.93;;
10823;SDS011;39116;59.332;18.034;2024-01-30T02:57:28;73.70;;;19.05;;
10823;SDS011;39116;59.332;18.034;2024-01-30T02:59:49;100.70;;;18.77;;
10823;SDS011;39116;59.332;18.034;2024-01-30T03:02:11;102.43;;;19.80;;
10823;SDS011;39116;59.332;18.034;2024-01-30T03:04:33;124.83;;;18.63;;
10823;SDS011;39116;59.332;18.034;2024-01-30T03:06:55;136.83;;;19.73;;
10823;SDS011;39116;59.332;18.034;2024-01-30T03:09:16;74.25;;;18.75;;
10823;SDS011;39116;59.332;18.034;2024-01-30T03:11:40;79.87;;;16.57;;
10823;SDS011;39116;59.332;18.034;2024-01-30T03:14:01;117.25;;;20.23;;
10823;SDS011;39116;59.332;18.034;2024-01-30T03:16:24;118.13;;;17.70;;
10823;SDS011;39116;59.332;18.034;2024-01-30T03:18:46;110.13;;;20.07;;
10823;SDS011;39116;59.332;18.034;2024-01-30T03:21:08;161.77;;;21.47;;
10823;SDS011;39116;59.332;18.034;2024-01-30T03:23:30;79.37;;;18.50;;
10823;SDS011;39116;59.332;18.034;2024-01-30T03:25:52;77.80;;;18.07;;
10823;SDS011;39116;59.332;18.034;2024-01-30T03:28:16;112.33;;;18.63;;
10823;SDS011;39116;59.332;18.034;2024-01-30T03:30:37;72.40;;;15.63;;
10823;SDS011;39116;59.332;18.034;2024-01-30T03:32:59;74.20;;;17.17;;
10823;SDS011;39116;59.332;18.034;2024-01-30T03:35:21;74.95;;;17.58;;
10823;SDS011;39116;59.332;18.034;2024-01-30T03:37:43;78.97;;;16.10;;
10823;SDS011;39116;59.332;18.034;2024-01-30T03:40:05;79.37;;;16.90;;
10823;SDS011;39116;59.332;18.034;2024-01-30T03:42:26;46.63;;;16.98;;
10823;SDS011;39116;59.332;18.034;2024-01-30T03:44:50;132.80;;;19.93;;
10823;SDS011;39116;59.332;18.034;2024-01-30T03:47:13;85.03;;;16.70;;
10823;SDS011;39116;59.332;18.034;2024-01-30T03:49:35;84.60;;;18.30;;
10823;SDS011;39116;59.332;18.034;2024-01-30T03:51:57;50.45;;;15.75;;
10823;SDS011;39116;59.332;18.034;2024-01-30T03:54:18;52.30;;;15.20;;
10823;SDS011;39116;59.332;18.034;2024-01-30T03:56:40;45.00;;;14.97;;
10823;SDS011;39116;59.332;18.034;2024-01-30T03:59:02;58.07;;;16.47;;
10823;SDS011;39116;59.332;18.034;2024-01-30T04:01:25;163.40;;;20.97;;
10823;SDS011;39116;59.332;18.034;2024-01-30T04:03:47;126.40;;;17.70;;
10823;SDS011;39116;59.332;18.034;2024-01-30T04:06:09;94.10;;;17.17;;
10823;SDS011;39116;59.332;18.034;2024-01-30T04:08:30;97.33;;;15.87;;
10823;SDS011;39116;59.332;18.034;2024-01-30T04:10:52;118.55;;;16.55;;
10823;SDS011;39116;59.332;18.034;2024-01-30T04:13:14;62.08;;;14.23;;
10823;SDS011;39116;59.332;18.034;2024-01-30T04:15:36;43.47;;;12.80;;
10823;SDS011;39116;59.332;18.034;2024-01-30T04:18:00;50.75;;;12.20;;
10823;SDS011;39116;59.332;18.034;2024-01-30T04:20:21;39.35;;;13.35;;
10823;SDS011;39116;59.332;18.034;2024-01-30T04:22:43;36.70;;;13.30;;
10823;SDS011;39116;59.332;18.034;2024-01-30T04:25:05;63.03;;;14.73;;
10823;SDS011;39116;59.332;18.034;2024-01-30T04:27:26;58.33;;;14.80;;
10823;SDS011;39116;59.332;18.034;2024-01-30T04:29:48;29.17;;;14.00;;
10823;SDS011;39116;59.332;18.034;2024-01-30T04:32:10;29.77;;;14.83;;
10823;SDS011;39116;59.332;18.034;2024-01-30T04:34:32;31.40;;;12.93;;
10823;SDS011;39116;59.332;18.034;2024-01-30T04:36:54;34.83;;;13.97;;
10823;SDS011;39116;59.332;18.034;2024-01-30T04:39:16;28.08;;;14.30;;
10823;SDS011;39116;59.332;18.034;2024-01-30T04:41:38;28.90;;;14.15;;
10823;SDS011;39116;59.332;18.034;2024-01-30T04:44:00;28.20;;;15.03;;
10823;SDS011;39116;59.332;18.034;2024-01-30T04:46:21;32.20;;;15.13;;
10823;SDS011;39116;59.332;18.034;2024-01-30T04:48:43;49.03;;;17.23;;
10823;SDS011;39116;59.332;18.034;2024-01-30T04:51:06;33.28;;;16.05;;
10823;SDS011;39116;59.332;18.034;2024-01-30T04:53:29;33.60;;;16.03;;
10823;SDS011;39116;59.332;18.034;2024-01-30T04:55:51;28.52;;;14.57;;
10823;SDS011;39116;59.332;18.034;2024-01-30T04:58:13;27.23;;;14.93;;
10823;SDS011;39116;59.332;18.034;2024-01-30T05:00:34;28.00;;;14.57;;
10823;SDS011;39116;59.332;18.034;2024-01-30T05:02:56;28.35;;;14.38;;
10823;SDS011;39116;59.332;18.034;2024-01-30T05:05:18;28.95;;;14.00;;
10823;SDS011;39116;59.332;18.034;2024-01-30T05:07:41;24.15;;;14.25;;
10823;SDS011;39116;59.332;18.034;2024-01-30T05:10:03;23.08;;;13.80;;
10823;SDS011;39116;59.332;18.034;2024-01-30T05:12:25;22.55;;;12.50;;
10823;SDS011;39116;59.332;18.034;2024-01-30T05:14:47;47.22;;;15.25;;
10823;SDS011;39116;59.332;18.034;2024-01-30T05:17:08;27.17;;;13.45;;
10823;SDS011;39116;59.332;18.034;2024-01-30T05:19:32;29.17;;;13.95;;
10823;SDS011;39116;59.332;18.034;2024-01-30T05:21:54;27.67;;;14.30;;
10823;SDS011;39116;59.332;18.034;2024-01-30T05:24:17;26.92;;;15.27;;
10823;SDS011;39116;59.332;18.034;2024-01-30T05:26:39;28.85;;;14.55;;
10823;SDS011;39116;59.332;18.034;2024-01-30T05:29:01;29.75;;;15.82;;
10823;SDS011;39116;59.332;18.034;2024-01-30T05:31:24;32.25;;;15.52;;
10823;SDS011;39116;59.332;18.034;2024-01-30T05:33:47;25.63;;;15.15;;
10823;SDS011;39116;59.332;18.034;2024-01-30T05:36:11;26.70;;;14.68;;
10823;SDS011;39116;59.332;18.034;2024-01-30T05:38:32;25.50;;;14.23;;
10823;SDS011;39116;59.332;18.034;2024-01-30T05:40:58;24.83;;;14.25;;
10823;SDS011;39116;59.332;18.034;2024-01-30T05:43:20;21.73;;;12.55;;
10823;SDS011;39116;59.332;18.034;2024-01-30T05:45:41;22.70;;;13.40;;
10823;SDS011;39116;59.332;18.034;2024-01-30T05:48:04;22.35;;;12.93;;
10823;SDS011;39116;59.332;18.034;2024-01-30T05:50:25;22.42;;;13.52;;
10823;SDS011;39116;59.332;18.034;2024-01-30T05:52:47;24.92;;;12.55;;
10823;SDS011;39116;59.332;18.034;2024-01-30T05:55:09;23.33;;;13.03;;
10823;SDS011;39116;59.332;18.034;2024-01-30T05:57:33;15.85;;;10.40;;
10823;SDS011;39116;59.332;18.034;2024-01-30T05:59:55;15.55;;;9.95;;
10823;SDS011;39116;59.332;18.034;2024-01-30T06:02:16;15.82;;;9.70;;
10823;SDS011;39116;59.332;18.034;2024-01-30T06:04:38;14.48;;;9.15;;
10823;SDS011;39116;59.332;18.034;2024-01-30T06:07:00;13.60;;;8.93;;
10823;SDS011;39116;59.332;18.034;2024-01-30T06:09:22;13.88;;;8.50;;
10823;SDS011;39116;59.332;18.034;2024-01-30T06:11:43;15.93;;;9.13;;
10823;SDS011;39116;59.332;18.034;2024-01-30T06:14:06;18.25;;;10.60;;
10823;SDS011;39116;59.332;18.034;2024-01-30T06:16:28;19.85;;;10.07;;
10823;SDS011;39116;59.332;18.034;2024-01-30T06:18:50;20.27;;;12.05;;
10823;SDS011;39116;59.332;18.034;2024-01-30T06:21:12;20.47;;;11.20;;
10823;SDS011;39116;59.332;18.034;2024-01-30T06:23:34;21.57;;;11.70;;
10823;SDS011;39116;59.332;18.034;2024-01-30T06:25:55;22.30;;;11.40;;
10823;SDS011;39116;59.332;18.034;2024-01-30T06:28:17;22.50;;;11.88;;
10823;SDS011;39116;59.332;18.034;2024-01-30T06:30:40;21.95;;;12.80;;
10823;SDS011;39116;59.332;18.034;2024-01-30T06:33:02;26.10;;;12.98;;
10823;SDS011;39116;59.332;18.034;2024-01-30T06:35:24;21.73;;;12.47;;
10823;SDS011;39116;59.332;18.034;2024-01-30T06:37:46;27.37;;;13.53;;
10823;SDS011;39116;59.332;18.034;2024-01-30T06:40:08;24.90;;;13.23;;
10823;SDS011;39116;59.332;18.034;2024-01-30T06:42:30;28.70;;;13.63;;
10823;SDS011;39116;59.332;18.034;2024-01-30T06:44:51;27.15;;;14.43;;
10823;SDS011;39116;59.332;18.034;2024-01-30T06:47:14;25.77;;;13.75;;
10823;SDS011;39116;59.332;18.034;2024-01-30T06:49:36;25.07;;;13.33;;
10823;SDS011;39116;59.332;18.034;2024-01-30T06:51:58;25.13;;;12.80;;
10823;SDS011;39116;59.332;18.034;2024-01-30T06:54:20;24.27;;;13.63;;
10823;SDS011;39116;59.332;18.034;2024-01-30T06:56:42;21.58;;;13.57;;
10823;SDS011;39116;59.332;18.034;2024-01-30T06:59:03;32.17;;;14.70;;
10823;SDS011;39116;59.332;18.034;2024-01-30T07:01:27;23.87;;;13.27;;
10823;SDS011;39116;59.332;18.034;2024-01-30T07:03:49;26.10;;;14.23;;
10823;SDS011;39116;59.332;18.034;2024-01-30T07:06:11;28.10;;;14.13;;
10823;SDS011;39116;59.332;18.034;2024-01-30T07:08:33;28.88;;;14.52;;
10823;SDS011;39116;59.332;18.034;2024-01-30T07:10:54;24.17;;;13.80;;
10823;SDS011;39116;59.332;18.034;2024-01-30T07:13:18;46.53;;;30.73;;
10823;SDS011;39116;59.332;18.034;2024-01-30T07:15:40;38.03;;;24.27;;
10823;SDS011;39116;59.332;18.034;2024-01-30T07:18:02;32.53;;;20.60;;
10823;SDS011;39116;59.332;18.034;2024-01-30T07:20:24;27.20;;;16.77;;
10823;SDS011;39116;59.332;18.034;2024-01-30T07:22:46;25.70;;;15.53;;
10823;SDS011;39116;59.332;18.034;2024-01-30T07:25:08;26.60;;;16.17;;
10823;SDS011;39116;59.332;18.034;2024-01-30T07:27:30;23.17;;;14.13;;
10823;SDS011;39116;59.332;18.034;2024-01-30T07:29:51;29.00;;;15.57;;
10823;SDS011;39116;59.332;18.034;2024-01-30T07:32:13;26.00;;;13.10;;
10823;SDS011;39116;59.332;18.034;2024-01-30T07:34:35;21.57;;;12.53;;
10823;SDS011;39116;59.332;18.034;2024-01-30T07:36:59;23.10;;;12.37;;
10823;SDS011;39116;59.332;18.034;2024-01-30T07:39:21;23.87;;;12.30;;
10823;SDS011;39116;59.332;18.034;2024-01-30T07:41:42;21.30;;;12.05;;
10823;SDS011;39116;59.332;18.034;2024-01-30T07:44:04;25.77;;;13.90;;
10823;SDS011;39116;59.332;18.034;2024-01-30T07:46:25;24.53;;;13.27;;
10823;SDS011;39116;59.332;18.034;2024-01-30T07:48:47;20.67;;;12.53;;
10823;SDS011;39116;59.332;18.034;2024-01-30T07:51:09;24.27;;;13.68;;
10823;SDS011;39116;59.332;18.034;2024-01-30T07:53:32;21.90;;;12.05;;
10823;SDS011;39116;59.332;18.034;2024-01-30T07:55:54;70.28;;;44.72;;
10823;SDS011;39116;59.332;18.034;2024-01-30T07:58:15;23.95;;;14.55;;
10823;SDS011;39116;59.332;18.034;2024-01-30T08:00:37;23.80;;;12.43;;
10823;SDS011;39116;59.332;18.034;2024-01-30T08:02:59;22.02;;;12.13;;
10823;SDS011;39116;59.332;18.034;2024-01-30T08:05:20;22.50;;;11.82;;
10823;SDS011;39116;59.332;18.034;2024-01-30T08:07:42;21.05;;;11.30;;
10823;SDS011;39116;59.332;18.034;2024-01-30T08:10:06;21.30;;;11.63;;
10823;SDS011;39116;59.332;18.034;2024-01-30T08:12:28;24.75;;;11.90;;
10823;SDS011;39116;59.332;18.034;2024-01-30T08:14:49;26.30;;;12.57;;
10823;SDS011;39116;59.332;18.034;2024-01-30T08:17:11;24.73;;;11.65;;
10823;SDS011;39116;59.332;18.034;2024-01-30T08:19:33;20.38;;;10.52;;
10823;SDS011;39116;59.332;18.034;2024-01-30T08:21:54;22.08;;;10.55;;
10823;SDS011;39116;59.332;18.034;2024-01-30T08:24:16;21.27;;;10.43;;
10823;SDS011;39116;59.332;18.034;2024-01-30T08:26:39;17.90;;;9.75;;
10823;SDS011;39116;59.332;18.034;2024-01-30T08:29:01;19.50;;;10.32;;
10823;SDS011;39116;59.332;18.034;2024-01-30T08:31:23;18.38;;;11.07;;
10823;SDS011;39116;59.332;18.034;2024-01-30T08:33:44;18.30;;;10.90;;
10823;SDS011;39116;59.332;18.034;2024-01-30T08:36:06;20.70;;;11.07;;
10823;SDS011;39116;59.332;18.034;2024-01-30T08:38:28;17.65;;;10.50;;
10823;SDS011;39116;59.332;18.034;2024-01-30T08:40:50;20.60;;;10.65;;
10823;SDS011;39116;59.332;18.034;2024-01-30T08:43:12;25.45;;;13.57;;
10823;SDS011;39116;59.332;18.034;2024-01-30T08:45:35;22.58;;;14.38;;
10823;SDS011;39116;59.332;18.034;2024-01-30T08:47:57;26.80;;;12.60;;
10823;SDS011;39116;59.332;18.034;2024-01-30T08:50:18;21.30;;;11.63;;
10823;SDS011;39116;59.332;18.034;2024-01-30T08:52:40;23.50;;;11.07;;
10823;SDS011;39116;59.332;18.034;2024-01-30T08:55:02;19.48;;;10.13;;
10823;SDS011;39116;59.332;18.034;2024-01-30T08:57:24;18.07;;;9.57;;
10823;SDS011;39116;59.332;18.034;2024-01-30T08:59:50;19.38;;;9.85;;
10823;SDS011;39116;59.332;18.034;2024-01-30T09:02:11;23.55;;;11.40;;
10823;SDS011;39116;59.332;18.034;2024-01-30T09:04:36;19.77;;;10.50;;
10823;SDS011;39116;59.332;18.034;2024-01-30T09:06:57;17.52;;;10.77;;
10823;SDS011;39116;59.332;18.034;2024-01-30T09:09:19;21.85;;;11.07;;
10823;SDS011;39116;59.332;18.034;2024-01-30T09:11:41;27.27;;;15.55;;
10823;SDS011;39116;59.332;18.034;2024-01-30T09:14:03;25.33;;;13.85;;
10823;SDS011;39116;59.332;18.034;2024-01-30T09:16:26;27.92;;;15.40;;
10823;SDS011;39116;59.332;18.034;2024-01-30T09:18:48;30.88;;;14.90;;
10823;SDS011;39116;59.332;18.034;2024-01-30T09:21:10;27.02;;;14.50;;
10823;SDS011;39116;59.332;18.034;2024-01-30T09:23:32;25.67;;;13.98;;
10823;SDS011;39116;59.332;18.034;2024-01-30T09:25:53;24.05;;;13.63;;
10823;SDS011;39116;59.332;18.034;2024-01-30T09:28:15;27.58;;;14.00;;
10823;SDS011;39116;59.332;18.034;2024-01-30T09:30:37;22.48;;;12.88;;
10823;SDS011;39116;59.332;18.034;2024-01-30T09:33:00;23.92;;;11.48;;
10823;SDS011;39116;59.332;18.034;2024-01-30T09:35:22;20.17;;;12.45;;
10823;SDS011;39116;59.332;18.034;2024-01-30T09:37:43;24.20;;;15.43;;
10823;SDS011;39116;59.332;18.034;2024-01-30T09:40:06;62.45;;;34.45;;
10823;SDS011;39116;59.332;18.034;2024-01-30T09:42:28;37.10;;;21.73;;
10823;SDS011;39116;59.332;18.034;2024-01-30T09:44:54;21.17;;;11.73;;
10823;SDS011;39116;59.332;18.034;2024-01-30T09:47:17;18.35;;;10.35;;
10823;SDS011;39116;59.332;18.034;2024-01-30T09:49:40;20.25;;;10.75;;
10823;SDS011;39116;59.332;18.034;2024-01-30T09:52:03;17.98;;;10.85;;
10823;SDS011;39116;59.332;18.034;2024-01-30T09:54:26;22.52;;;12.90;;
10823;SDS011;39116;59.332;18.034;2024-01-30T09:56:49;22.55;;;12.95;;
10823;SDS011;39116;59.332;18.034;2024-01-30T09:59:11;20.25;;;13.52;;
10823;SDS011;39116;59.332;18.034;2024-01-30T10:01:34;17.42;;;10.93;;
10823;SDS011;39116;59.332;18.034;2024-01-30T10:03:56;17.98;;;11.05;;
10823;SDS011;39116;59.332;18.034;2024-01-30T10:06:19;22.88;;;10.70;;
10823;SDS011;39116;59.332;18.034;2024-01-30T10:08:42;18.35;;;10.88;;
10823;SDS011;39116;59.332;18.034;2024-01-30T10:11:04;19.45;;;11.38;;
10823;SDS011;39116;59.332;18.034;2024-01-30T10:13:26;16.65;;;9.93;;
10823;SDS011;39116;59.332;18.034;2024-01-30T10:15:48;18.65;;;10.18;;
10823;SDS011;39116;59.332;18.034;2024-01-30T10:18:10;18.17;;;10.13;;
10823;SDS011;39116;59.332;18.034;2024-01-30T10:20:32;21.98;;;11.00;;
10823;SDS011;39116;59.332;18.034;2024-01-30T10:22:55;21.88;;;10.73;;
10823;SDS011;39116;59.332;18.034;2024-01-30T10:25:17;20.13;;;11.32;;
10823;SDS011;39116;59.332;18.034;2024-01-30T10:27:40;19.48;;;10.80;;
10823;SDS011;39116;59.332;18.034;2024-01-30T10:30:01;16.17;;;11.02;;
10823;SDS011;39116;59.332;18.034;2024-01-30T10:32:24;24.88;;;11.68;;
10823;SDS011;39116;59.332;18.034;2024-01-30T10:34:47;20.15;;;11.10;;
10823;SDS011;39116;59.332;18.034;2024-01-30T10:37:09;20.52;;;11.40;;
10823;SDS011;39116;59.332;18.034;2024-01-30T10:39:35;20.90;;;10.77;;
10823;SDS011;39116;59.332;18.034;2024-01-30T10:42:00;20.60;;;11.25;;
10823;SDS011;39116;59.332;18.034;2024-01-30T10:44:24;19.70;;;10.85;;
10823;SDS011;39116;59.332;18.034;2024-01-30T10:46:49;23.08;;;12.02;;
10823;SDS011;39116;59.332;18.034;2024-01-30T10:49:12;22.67;;;11.52;;
10823;SDS011;39116;59.332;18.034;2024-01-30T10:51:35;25.40;;;11.65;;
10823;SDS011;39116;59.332;18.034;2024-01-30T10:53:58;22.65;;;11.95;;
10823;SDS011;39116;59.332;18.034;2024-01-30T10:56:22;20.55;;;10.93;;
10823;SDS011;39116;59.332;18.034;2024-01-30T10:58:43;18.52;;;11.60;;
10823;SDS011;39116;59.332;18.034;2024-01-30T11:01:05;20.15;;;11.35;;
10823;SDS011;39116;59.332;18.034;2024-01-30T11:03:27;23.25;;;11.20;;
10823;SDS011;39116;59.332;18.034;2024-01-30T11:05:49;21.17;;;12.25;;
10823;SDS011;39116;59.332;18.034;2024-01-30T11:08:12;20.38;;;12.05;;
10823;SDS011;39116;59.332;18.034;2024-01-30T11:10:34;24.13;;;11.65;;
10823;SDS011;39116;59.332;18.034;2024-01-30T11:13:12;22.83;;;11.98;;
10823;SDS011;39116;59.332;18.034;2024-01-30T11:15:37;22.33;;;13.23;;
10823;SDS011;39116;59.332;18.034;2024-01-30T11:17:59;21.73;;;11.93;;
10823;SDS011;39116;59.332;18.034;2024-01-30T11:20:22;23.67;;;11.93;;
10823;SDS011;39116;59.332;18.034;2024-01-30T11:22:44;25.73;;;12.63;;
10823;SDS011;39116;59.332;18.034;2024-01-30T11:25:06;26.58;;;12.68;;
10823;SDS011;39116;59.332;18.034;2024-01-30T11:27:32;28.75;;;13.68;;
10823;SDS011;39116;59.332;18.034;2024-01-30T11:29:55;28.90;;;14.18;;
10823;SDS011;39116;59.332;18.034;2024-01-30T11:32:22;26.55;;;13.38;;
10823;SDS011;39116;59.332;18.034;2024-01-30T11:34:44;27.92;;;14.15;;
10823;SDS011;39116;59.332;18.034;2024-01-30T11:37:09;24.75;;;13.15;;
10823;SDS011;39116;59.332;18.034;2024-01-30T11:39:31;27.67;;;13.57;;
10823;SDS011;39116;59.332;18.034;2024-01-30T11:41:54;24.55;;;13.57;;
10823;SDS011;39116;59.332;18.034;2024-01-30T11:44:16;24.40;;;13.55;;
10823;SDS011;39116;59.332;18.034;2024-01-30T11:46:39;24.40;;;13.40;;
10823;SDS011;39116;59.332;18.034;2024-01-30T11:49:00;25.10;;;13.95;;
10823;SDS011;39116;59.332;18.034;2024-01-30T11:51:22;24.63;;;13.98;;
10823;SDS011;39116;59.332;18.034;2024-01-30T11:53:44;25.80;;;14.15;;
10823;SDS011;39116;59.332;18.034;2024-01-30T11:56:06;23.80;;;13.25;;
10823;SDS011;39116;59.332;18.034;2024-01-30T11:58:28;23.95;;;13.40;;
10823;SDS011;39116;59.332;18.034;2024-01-30T12:00:54;25.10;;;14.50;;
10823;SDS011;39116;59.332;18.034;2024-01-30T12:03:17;26.00;;;13.90;;
10823;SDS011;39116;59.332;18.034;2024-01-30T12:05:39;25.20;;;13.18;;
10823;SDS011;39116;59.332;18.034;2024-01-30T12:08:03;28.05;;;13.63;;
10823;SDS011;39116;59.332;18.034;2024-01-30T12:10:25;29.15;;;13.77;;
10823;SDS011;39116;59.332;18.034;2024-01-30T12:12:47;25.13;;;13.77;;
10823;SDS011;39116;59.332;18.034;2024-01-30T12:15:10;26.40;;;14.30;;
10823;SDS011;39116;59.332;18.034;2024-01-30T12:17:32;28.50;;;14.38;;
10823;SDS011;39116;59.332;18.034;2024-01-30T12:20:03;21.00;;;12.80;;
10823;SDS011;39116;59.332;18.034;2024-01-30T12:22:26;24.35;;;13.30;;
10823;SDS011;39116;59.332;18.034;2024-01-30T12:24:48;25.42;;;13.27;;
10823;SDS011;39116;59.332;18.034;2024-01-30T12:27:10;21.67;;;13.02;;
10823;SDS011;39116;59.332;18.034;2024-01-30T12:29:32;22.80;;;12.82;;
10823;SDS011;39116;59.332;18.034;2024-01-30T12:31:54;21.52;;;12.70;;
10823;SDS011;39116;59.332;18.034;2024-01-30T12:34:17;25.58;;;13.48;;
10823;SDS011;39116;59.332;18.034;2024-01-30T12:36:42;19.73;;;12.32;;
10823;SDS011;39116;59.332;18.034;2024-01-30T12:39:03;20.42;;;11.90;;
10823;SDS011;39116;59.332;18.034;2024-01-30T12:41:25;21.70;;;12.57;;
10823;SDS011;39116;59.332;18.034;2024-01-30T12:43:48;19.17;;;11.90;;
10823;SDS011;39116;59.332;18.034;2024-01-30T12:46:10;18.60;;;12.05;;
10823;SDS011;39116;59.332;18.034;2024-01-30T12:48:32;18.75;;;11.35;;
10823;SDS011;39116;59.332;18.034;2024-01-30T12:50:53;19.30;;;11.65;;
10823;SDS011;39116;59.332;18.034;2024-01-30T12:53:16;21.02;;;11.95;;
10823;SDS011;39116;59.332;18.034;2024-01-30T12:55:38;23.20;;;12.70;;
10823;SDS011;39116;59.332;18.034;2024-01-30T12:58:00;18.88;;;11.82;;
10823;SDS011;39116;59.332;18.034;2024-01-30T13:00:22;21.33;;;11.75;;
10823;SDS011;39116;59.332;18.034;2024-01-30T13:02:43;21.08;;;11.80;;
10823;SDS011;39116;59.332;18.034;2024-01-30T13:05:05;21.55;;;12.40;;
10823;SDS011;39116;59.332;18.034;2024-01-30T13:07:27;19.88;;;12.00;;
10823;SDS011;39116;59.332;18.034;2024-01-30T13:09:51;17.73;;;11.30;;
10823;SDS011;39116;59.332;18.034;2024-01-30T13:12:12;20.15;;;12.55;;
10823;SDS011;39116;59.332;18.034;2024-01-30T13:14:34;19.45;;;12.20;;
10823;SDS011;39116;59.332;18.034;2024-01-30T13:16:56;20.42;;;11.98;;
10823;SDS011;39116;59.332;18.034;2024-01-30T13:19:17;19.95;;;11.50;;
10823;SDS011;39116;59.332;18.034;2024-01-30T13:21:39;19.60;;;12.10;;
10823;SDS011;39116;59.332;18.034;2024-01-30T13:24:01;21.58;;;12.45;;
10823;SDS011;39116;59.332;18.034;2024-01-30T13:26:24;21.17;;;12.30;;
10823;SDS011;39116;59.332;18.034;2024-01-30T13:28:46;19.90;;;12.75;;
10823;SDS011;39116;59.332;18.034;2024-01-30T13:31:07;22.85;;;13.85;;
10823;SDS011;39116;59.332;18.034;2024-01-30T13:33:29;19.65;;;12.65;;
10823;SDS011;39116;59.332;18.034;2024-01-30T13:35:51;17.52;;;11.45;;
10823;SDS011;39116;59.332;18.034;2024-01-30T13:38:13;17.20;;;11.40;;
10823;SDS011;39116;59.332;18.034;2024-01-30T13:40:35;18.98;;;11.80;;
10823;SDS011;39116;59.332;18.034;2024-01-30T13:42:59;20.48;;;12.10;;